Mo Valley, Iowa
Current Conditions -  °F | °C
As of 1:15 AM on Friday 31 Oct 2014 (Local Time) from KBTA Reporting Station
Overcast Overcast  
Wind Chill: 28°   Ceiling: 2300
Heat Index: 39°   Visibility: 10mi
Dew Point: 28°   Wind: 26mph
Humidity: 66%   Direction: 350°N
Pressure: 30.39"   Gusts: 36mph
Location:  41.5746°N, 95.9326°W
Report Text: KBTA 310615Z AUTO 35023G31KT 10SM OVC023 04/M02 A3039 RMK AO2 T00381020
Loading
Personal Weather Stations






























Interactive Weather Map
Tropical Storm Tracking
New forecast layout! Learn more

10-Day Weather Forecast

Advertisements
Track Severe Weather on mobile